sensor_id;sensor_type;location;lat;lon;timestamp;P1;durP1;ratioP1;P2;durP2;ratioP2
74620;SDS011;75998;47.550;19.254;2024-01-30T00:00:23;56.72;;;40.75;;
74620;SDS011;75998;47.550;19.254;2024-01-30T00:02:51;49.50;;;37.47;;
74620;SDS011;75998;47.550;19.254;2024-01-30T00:05:19;45.63;;;34.53;;
74620;SDS011;75998;47.550;19.254;2024-01-30T00:07:45;43.93;;;34.10;;
74620;SDS011;75998;47.550;19.254;2024-01-30T00:10:11;43.60;;;33.47;;
74620;SDS011;75998;47.550;19.254;2024-01-30T00:12:36;41.27;;;30.97;;
74620;SDS011;75998;47.550;19.254;2024-01-30T00:15:08;41.72;;;32.25;;
74620;SDS011;75998;47.550;19.254;2024-01-30T00:17:35;48.45;;;37.80;;
74620;SDS011;75998;47.550;19.254;2024-01-30T00:20:02;40.22;;;32.17;;
74620;SDS011;75998;47.550;19.254;2024-01-30T00:22:39;40.10;;;31.77;;
74620;SDS011;75998;47.550;19.254;2024-01-30T00:25:05;38.67;;;29.77;;
74620;SDS011;75998;47.550;19.254;2024-01-30T00:27:33;39.97;;;30.88;;
74620;SDS011;75998;47.550;19.254;2024-01-30T00:30:01;41.55;;;30.13;;
74620;SDS011;75998;47.550;19.254;2024-01-30T00:32:30;39.83;;;29.85;;
74620;SDS011;75998;47.550;19.254;2024-01-30T00:35:01;41.28;;;30.98;;
74620;SDS011;75998;47.550;19.254;2024-01-30T00:37:27;42.67;;;31.25;;
74620;SDS011;75998;47.550;19.254;2024-01-30T00:39:53;43.67;;;32.35;;
74620;SDS011;75998;47.550;19.254;2024-01-30T00:42:18;50.03;;;35.97;;
74620;SDS011;75998;47.550;19.254;2024-01-30T00:44:44;50.85;;;36.60;;
74620;SDS011;75998;47.550;19.254;2024-01-30T00:47:10;44.30;;;33.10;;
74620;SDS011;75998;47.550;19.254;2024-01-30T00:49:36;41.33;;;31.00;;
74620;SDS011;75998;47.550;19.254;2024-01-30T00:52:01;45.50;;;34.85;;
74620;SDS011;75998;47.550;19.254;2024-01-30T00:54:30;46.38;;;36.15;;
74620;SDS011;75998;47.550;19.254;2024-01-30T00:56:56;43.75;;;33.00;;
74620;SDS011;75998;47.550;19.254;2024-01-30T00:59:24;45.33;;;33.88;;
74620;SDS011;75998;47.550;19.254;2024-01-30T01:01:54;46.70;;;35.90;;
74620;SDS011;75998;47.550;19.254;2024-01-30T01:04:22;37.50;;;29.83;;
74620;SDS011;75998;47.550;19.254;2024-01-30T01:06:51;40.53;;;31.85;;
74620;SDS011;75998;47.550;19.254;2024-01-30T01:09:19;44.90;;;35.28;;
74620;SDS011;75998;47.550;19.254;2024-01-30T01:11:45;45.67;;;35.30;;
74620;SDS011;75998;47.550;19.254;2024-01-30T01:14:13;40.10;;;31.85;;
74620;SDS011;75998;47.550;19.254;2024-01-30T01:16:41;39.53;;;30.95;;
74620;SDS011;75998;47.550;19.254;2024-01-30T01:19:06;40.97;;;31.87;;
74620;SDS011;75998;47.550;19.254;2024-01-30T01:21:37;43.20;;;33.90;;
74620;SDS011;75998;47.550;19.254;2024-01-30T01:24:03;42.70;;;34.03;;
74620;SDS011;75998;47.550;19.254;2024-01-30T01:26:29;39.00;;;32.15;;
74620;SDS011;75998;47.550;19.254;2024-01-30T01:28:55;41.92;;;31.60;;
74620;SDS011;75998;47.550;19.254;2024-01-30T01:31:20;43.97;;;34.40;;
74620;SDS011;75998;47.550;19.254;2024-01-30T01:33:50;42.22;;;34.03;;
74620;SDS011;75998;47.550;19.254;2024-01-30T01:36:18;41.33;;;32.60;;
74620;SDS011;75998;47.550;19.254;2024-01-30T01:38:46;40.30;;;31.40;;
74620;SDS011;75998;47.550;19.254;2024-01-30T01:41:14;39.63;;;31.00;;
74620;SDS011;75998;47.550;19.254;2024-01-30T01:43:42;37.90;;;30.03;;
74620;SDS011;75998;47.550;19.254;2024-01-30T01:46:10;41.75;;;32.95;;
74620;SDS011;75998;47.550;19.254;2024-01-30T01:48:39;38.53;;;31.10;;
74620;SDS011;75998;47.550;19.254;2024-01-30T01:51:07;38.90;;;30.67;;
74620;SDS011;75998;47.550;19.254;2024-01-30T01:53:34;38.87;;;31.60;;
74620;SDS011;75998;47.550;19.254;2024-01-30T01:56:00;40.83;;;32.03;;
74620;SDS011;75998;47.550;19.254;2024-01-30T01:58:29;41.95;;;33.65;;
74620;SDS011;75998;47.550;19.254;2024-01-30T02:00:55;41.78;;;32.35;;
74620;SDS011;75998;47.550;19.254;2024-01-30T02:03:24;38.58;;;30.70;;
74620;SDS011;75998;47.550;19.254;2024-01-30T02:05:53;37.70;;;30.47;;
74620;SDS011;75998;47.550;19.254;2024-01-30T02:08:20;40.55;;;31.50;;
74620;SDS011;75998;47.550;19.254;2024-01-30T02:10:45;42.60;;;32.03;;
74620;SDS011;75998;47.550;19.254;2024-01-30T02:13:11;39.13;;;29.63;;
74620;SDS011;75998;47.550;19.254;2024-01-30T02:15:39;38.08;;;29.70;;
74620;SDS011;75998;47.550;19.254;2024-01-30T02:18:05;41.70;;;31.93;;
74620;SDS011;75998;47.550;19.254;2024-01-30T02:20:30;41.10;;;30.80;;
74620;SDS011;75998;47.550;19.254;2024-01-30T02:22:58;35.50;;;28.30;;
74620;SDS011;75998;47.550;19.254;2024-01-30T02:25:37;36.90;;;29.73;;
74620;SDS011;75998;47.550;19.254;2024-01-30T02:28:09;43.30;;;31.80;;
74620;SDS011;75998;47.550;19.254;2024-01-30T02:30:46;38.40;;;29.45;;
74620;SDS011;75998;47.550;19.254;2024-01-30T02:33:15;45.70;;;33.85;;
74620;SDS011;75998;47.550;19.254;2024-01-30T02:35:40;40.90;;;30.35;;
74620;SDS011;75998;47.550;19.254;2024-01-30T02:38:06;43.00;;;32.03;;
74620;SDS011;75998;47.550;19.254;2024-01-30T02:40:38;43.08;;;33.42;;
74620;SDS011;75998;47.550;19.254;2024-01-30T02:43:04;41.00;;;31.33;;
74620;SDS011;75998;47.550;19.254;2024-01-30T02:45:30;38.10;;;29.10;;
74620;SDS011;75998;47.550;19.254;2024-01-30T02:47:58;35.72;;;27.60;;
74620;SDS011;75998;47.550;19.254;2024-01-30T02:50:29;40.60;;;31.83;;
74620;SDS011;75998;47.550;19.254;2024-01-30T02:52:57;45.87;;;34.17;;
74620;SDS011;75998;47.550;19.254;2024-01-30T02:55:25;39.93;;;33.00;;
74620;SDS011;75998;47.550;19.254;2024-01-30T02:57:51;38.60;;;31.37;;
74620;SDS011;75998;47.550;19.254;2024-01-30T03:00:21;46.70;;;35.45;;
74620;SDS011;75998;47.550;19.254;2024-01-30T03:02:49;38.65;;;30.73;;
74620;SDS011;75998;47.550;19.254;2024-01-30T03:05:15;40.53;;;30.70;;
74620;SDS011;75998;47.550;19.254;2024-01-30T03:07:40;39.73;;;30.60;;
74620;SDS011;75998;47.550;19.254;2024-01-30T03:10:06;40.25;;;31.02;;
74620;SDS011;75998;47.550;19.254;2024-01-30T03:12:32;37.47;;;28.92;;
74620;SDS011;75998;47.550;19.254;2024-01-30T03:15:07;36.13;;;28.42;;
74620;SDS011;75998;47.550;19.254;2024-01-30T03:17:34;35.65;;;28.42;;
74620;SDS011;75998;47.550;19.254;2024-01-30T03:20:02;35.60;;;28.08;;
74620;SDS011;75998;47.550;19.254;2024-01-30T03:22:34;37.72;;;27.75;;
74620;SDS011;75998;47.550;19.254;2024-01-30T03:25:03;40.53;;;32.33;;
74620;SDS011;75998;47.550;19.254;2024-01-30T03:27:29;62.40;;;44.17;;
74620;SDS011;75998;47.550;19.254;2024-01-30T03:29:54;72.90;;;50.13;;
74620;SDS011;75998;47.550;19.254;2024-01-30T03:32:20;116.33;;;76.37;;
74620;SDS011;75998;47.550;19.254;2024-01-30T03:34:46;107.70;;;71.97;;
74620;SDS011;75998;47.550;19.254;2024-01-30T03:37:14;85.47;;;55.22;;
74620;SDS011;75998;47.550;19.254;2024-01-30T03:39:42;79.87;;;51.00;;
74620;SDS011;75998;47.550;19.254;2024-01-30T03:42:10;71.20;;;47.55;;
74620;SDS011;75998;47.550;19.254;2024-01-30T03:44:36;66.80;;;45.80;;
74620;SDS011;75998;47.550;19.254;2024-01-30T03:47:01;91.75;;;65.53;;
74620;SDS011;75998;47.550;19.254;2024-01-30T03:49:27;80.47;;;57.80;;
74620;SDS011;75998;47.550;19.254;2024-01-30T03:52:02;69.07;;;50.95;;
74620;SDS011;75998;47.550;19.254;2024-01-30T03:54:42;59.22;;;43.47;;
74620;SDS011;75998;47.550;19.254;2024-01-30T03:57:08;47.40;;;37.33;;
74620;SDS011;75998;47.550;19.254;2024-01-30T03:59:33;43.28;;;33.17;;
74620;SDS011;75998;47.550;19.254;2024-01-30T04:01:59;43.75;;;33.42;;
74620;SDS011;75998;47.550;19.254;2024-01-30T04:04:25;40.15;;;31.05;;
74620;SDS011;75998;47.550;19.254;2024-01-30T04:06:53;38.83;;;29.50;;
74620;SDS011;75998;47.550;19.254;2024-01-30T04:09:22;38.13;;;30.40;;
74620;SDS011;75998;47.550;19.254;2024-01-30T04:11:47;36.22;;;29.42;;
74620;SDS011;75998;47.550;19.254;2024-01-30T04:14:15;38.20;;;30.90;;
74620;SDS011;75998;47.550;19.254;2024-01-30T04:16:44;41.05;;;33.85;;
74620;SDS011;75998;47.550;19.254;2024-01-30T04:19:09;54.57;;;47.77;;
74620;SDS011;75998;47.550;19.254;2024-01-30T04:21:37;52.65;;;43.45;;
74620;SDS011;75998;47.550;19.254;2024-01-30T04:24:05;50.75;;;41.53;;
74620;SDS011;75998;47.550;19.254;2024-01-30T04:26:31;44.50;;;36.78;;
74620;SDS011;75998;47.550;19.254;2024-01-30T04:28:56;48.13;;;36.93;;
74620;SDS011;75998;47.550;19.254;2024-01-30T04:31:35;47.42;;;36.83;;
74620;SDS011;75998;47.550;19.254;2024-01-30T04:34:05;41.83;;;32.83;;
74620;SDS011;75998;47.550;19.254;2024-01-30T04:36:35;42.92;;;35.28;;
74620;SDS011;75998;47.550;19.254;2024-01-30T04:39:00;45.27;;;35.73;;
74620;SDS011;75998;47.550;19.254;2024-01-30T04:41:28;43.80;;;34.20;;
74620;SDS011;75998;47.550;19.254;2024-01-30T04:43:56;42.28;;;33.03;;
74620;SDS011;75998;47.550;19.254;2024-01-30T04:46:24;36.38;;;29.55;;
74620;SDS011;75998;47.550;19.254;2024-01-30T04:48:53;37.23;;;30.53;;
74620;SDS011;75998;47.550;19.254;2024-01-30T04:51:19;42.70;;;33.20;;
74620;SDS011;75998;47.550;19.254;2024-01-30T04:53:47;35.55;;;27.88;;
74620;SDS011;75998;47.550;19.254;2024-01-30T04:56:13;37.58;;;30.40;;
74620;SDS011;75998;47.550;19.254;2024-01-30T04:58:38;43.45;;;32.90;;
74620;SDS011;75998;47.550;19.254;2024-01-30T05:01:04;48.33;;;36.23;;
74620;SDS011;75998;47.550;19.254;2024-01-30T05:03:32;45.90;;;35.43;;
74620;SDS011;75998;47.550;19.254;2024-01-30T05:05:59;46.33;;;35.93;;
74620;SDS011;75998;47.550;19.254;2024-01-30T05:08:24;46.00;;;35.50;;
74620;SDS011;75998;47.550;19.254;2024-01-30T05:10:50;45.87;;;33.73;;
74620;SDS011;75998;47.550;19.254;2024-01-30T05:13:19;50.90;;;38.92;;
74620;SDS011;75998;47.550;19.254;2024-01-30T05:15:47;43.97;;;32.72;;
74620;SDS011;75998;47.550;19.254;2024-01-30T05:18:15;47.83;;;35.83;;
74620;SDS011;75998;47.550;19.254;2024-01-30T05:20:40;53.53;;;39.90;;
74620;SDS011;75998;47.550;19.254;2024-01-30T05:23:08;57.25;;;41.40;;
74620;SDS011;75998;47.550;19.254;2024-01-30T05:25:37;55.50;;;40.88;;
74620;SDS011;75998;47.550;19.254;2024-01-30T05:28:05;56.03;;;44.15;;
74620;SDS011;75998;47.550;19.254;2024-01-30T05:30:36;47.95;;;35.72;;
74620;SDS011;75998;47.550;19.254;2024-01-30T05:33:05;53.65;;;41.13;;
74620;SDS011;75998;47.550;19.254;2024-01-30T05:35:33;42.75;;;32.80;;
74620;SDS011;75998;47.550;19.254;2024-01-30T05:38:10;41.80;;;32.43;;
74620;SDS011;75998;47.550;19.254;2024-01-30T05:40:39;43.83;;;33.47;;
74620;SDS011;75998;47.550;19.254;2024-01-30T05:43:04;43.97;;;33.95;;
74620;SDS011;75998;47.550;19.254;2024-01-30T05:45:51;43.25;;;33.10;;
74620;SDS011;75998;47.550;19.254;2024-01-30T05:48:17;55.42;;;41.03;;
74620;SDS011;75998;47.550;19.254;2024-01-30T05:50:46;44.63;;;34.73;;
74620;SDS011;75998;47.550;19.254;2024-01-30T05:53:12;56.47;;;41.37;;
74620;SDS011;75998;47.550;19.254;2024-01-30T05:55:37;52.05;;;39.00;;
74620;SDS011;75998;47.550;19.254;2024-01-30T05:58:06;52.03;;;37.77;;
74620;SDS011;75998;47.550;19.254;2024-01-30T06:00:31;58.10;;;42.50;;
74620;SDS011;75998;47.550;19.254;2024-01-30T06:03:09;59.40;;;44.53;;
74620;SDS011;75998;47.550;19.254;2024-01-30T06:05:37;63.60;;;46.78;;
74620;SDS011;75998;47.550;19.254;2024-01-30T06:08:08;61.90;;;44.60;;
74620;SDS011;75998;47.550;19.254;2024-01-30T06:10:33;65.25;;;47.88;;
74620;SDS011;75998;47.550;19.254;2024-01-30T06:13:09;69.28;;;51.15;;
74620;SDS011;75998;47.550;19.254;2024-01-30T06:15:40;64.60;;;49.08;;
74620;SDS011;75998;47.550;19.254;2024-01-30T06:18:08;64.97;;;47.92;;
74620;SDS011;75998;47.550;19.254;2024-01-30T06:20:36;61.63;;;47.17;;
74620;SDS011;75998;47.550;19.254;2024-01-30T06:23:01;70.47;;;51.93;;
74620;SDS011;75998;47.550;19.254;2024-01-30T06:25:30;68.07;;;52.33;;
74620;SDS011;75998;47.550;19.254;2024-01-30T06:27:59;76.18;;;54.92;;
74620;SDS011;75998;47.550;19.254;2024-01-30T06:30:24;73.65;;;54.20;;
74620;SDS011;75998;47.550;19.254;2024-01-30T06:32:52;73.95;;;54.83;;
74620;SDS011;75998;47.550;19.254;2024-01-30T06:35:21;77.93;;;59.13;;
74620;SDS011;75998;47.550;19.254;2024-01-30T06:37:47;70.43;;;55.95;;
74620;SDS011;75998;47.550;19.254;2024-01-30T06:40:16;77.43;;;58.60;;
74620;SDS011;75998;47.550;19.254;2024-01-30T06:42:41;91.67;;;71.40;;
74620;SDS011;75998;47.550;19.254;2024-01-30T06:45:07;94.93;;;71.87;;
74620;SDS011;75998;47.550;19.254;2024-01-30T06:47:33;87.05;;;66.65;;
74620;SDS011;75998;47.550;19.254;2024-01-30T06:49:58;83.57;;;62.97;;
74620;SDS011;75998;47.550;19.254;2024-01-30T06:52:27;81.32;;;62.65;;
74620;SDS011;75998;47.550;19.254;2024-01-30T06:54:53;83.25;;;63.47;;
74620;SDS011;75998;47.550;19.254;2024-01-30T06:57:18;78.78;;;61.83;;
74620;SDS011;75998;47.550;19.254;2024-01-30T06:59:47;77.90;;;59.40;;
74620;SDS011;75998;47.550;19.254;2024-01-30T07:02:16;81.15;;;60.03;;
74620;SDS011;75998;47.550;19.254;2024-01-30T07:04:42;75.03;;;57.53;;
74620;SDS011;75998;47.550;19.254;2024-01-30T07:07:08;78.23;;;59.37;;
74620;SDS011;75998;47.550;19.254;2024-01-30T07:09:40;86.38;;;63.90;;
74620;SDS011;75998;47.550;19.254;2024-01-30T07:12:06;82.88;;;63.72;;
74620;SDS011;75998;47.550;19.254;2024-01-30T07:14:32;80.45;;;62.67;;
74620;SDS011;75998;47.550;19.254;2024-01-30T07:16:57;361.57;;;113.83;;
74620;SDS011;75998;47.550;19.254;2024-01-30T07:19:25;92.78;;;70.85;;
74620;SDS011;75998;47.550;19.254;2024-01-30T07:21:53;80.70;;;62.17;;
74620;SDS011;75998;47.550;19.254;2024-01-30T07:24:19;70.63;;;55.07;;
74620;SDS011;75998;47.550;19.254;2024-01-30T07:26:44;60.07;;;48.20;;
74620;SDS011;75998;47.550;19.254;2024-01-30T07:29:10;59.42;;;47.00;;
74620;SDS011;75998;47.550;19.254;2024-01-30T07:31:38;58.65;;;46.40;;
74620;SDS011;75998;47.550;19.254;2024-01-30T07:34:03;58.97;;;47.22;;
74620;SDS011;75998;47.550;19.254;2024-01-30T07:36:29;60.37;;;47.83;;
74620;SDS011;75998;47.550;19.254;2024-01-30T07:38:54;58.13;;;47.90;;
74620;SDS011;75998;47.550;19.254;2024-01-30T07:41:20;54.55;;;45.42;;
74620;SDS011;75998;47.550;19.254;2024-01-30T07:43:45;52.87;;;40.80;;
74620;SDS011;75998;47.550;19.254;2024-01-30T07:46:11;52.22;;;42.20;;
74620;SDS011;75998;47.550;19.254;2024-01-30T07:48:36;48.27;;;40.00;;
74620;SDS011;75998;47.550;19.254;2024-01-30T07:51:02;49.78;;;41.88;;
74620;SDS011;75998;47.550;19.254;2024-01-30T07:53:29;46.22;;;38.75;;
74620;SDS011;75998;47.550;19.254;2024-01-30T07:56:00;47.93;;;37.77;;
74620;SDS011;75998;47.550;19.254;2024-01-30T07:58:26;49.38;;;38.17;;
74620;SDS011;75998;47.550;19.254;2024-01-30T08:00:52;55.50;;;41.90;;
74620;SDS011;75998;47.550;19.254;2024-01-30T08:03:18;64.80;;;48.30;;
74620;SDS011;75998;47.550;19.254;2024-01-30T08:05:44;60.10;;;46.67;;
74620;SDS011;75998;47.550;19.254;2024-01-30T08:08:09;59.87;;;47.50;;
74620;SDS011;75998;47.550;19.254;2024-01-30T08:10:35;51.70;;;40.87;;
74620;SDS011;75998;47.550;19.254;2024-01-30T08:13:01;42.75;;;34.80;;
74620;SDS011;75998;47.550;19.254;2024-01-30T08:15:27;35.40;;;29.33;;
74620;SDS011;75998;47.550;19.254;2024-01-30T08:17:52;37.07;;;28.17;;
74620;SDS011;75998;47.550;19.254;2024-01-30T08:20:23;35.10;;;27.00;;
74620;SDS011;75998;47.550;19.254;2024-01-30T08:22:52;33.20;;;25.13;;
74620;SDS011;75998;47.550;19.254;2024-01-30T08:25:17;32.50;;;25.55;;
74620;SDS011;75998;47.550;19.254;2024-01-30T08:27:43;32.38;;;25.50;;
74620;SDS011;75998;47.550;19.254;2024-01-30T08:30:12;33.72;;;26.70;;
74620;SDS011;75998;47.550;19.254;2024-01-30T08:32:38;32.10;;;25.60;;
74620;SDS011;75998;47.550;19.254;2024-01-30T08:35:03;30.70;;;24.30;;
74620;SDS011;75998;47.550;19.254;2024-01-30T08:37:29;27.10;;;21.73;;
74620;SDS011;75998;47.550;19.254;2024-01-30T08:39:55;26.48;;;21.65;;
74620;SDS011;75998;47.550;19.254;2024-01-30T08:42:20;30.13;;;23.33;;
74620;SDS011;75998;47.550;19.254;2024-01-30T08:44:48;30.30;;;23.60;;
74620;SDS011;75998;47.550;19.254;2024-01-30T08:47:14;30.13;;;23.45;;
74620;SDS011;75998;47.550;19.254;2024-01-30T08:49:42;28.95;;;21.90;;
74620;SDS011;75998;47.550;19.254;2024-01-30T08:52:09;31.38;;;23.08;;
74620;SDS011;75998;47.550;19.254;2024-01-30T08:54:35;37.50;;;29.52;;
74620;SDS011;75998;47.550;19.254;2024-01-30T08:57:01;31.20;;;24.67;;
74620;SDS011;75998;47.550;19.254;2024-01-30T08:59:27;30.80;;;24.20;;
74620;SDS011;75998;47.550;19.254;2024-01-30T09:01:52;30.73;;;23.00;;
74620;SDS011;75998;47.550;19.254;2024-01-30T09:04:20;30.65;;;23.15;;
74620;SDS011;75998;47.550;19.254;2024-01-30T09:06:47;28.92;;;23.10;;
74620;SDS011;75998;47.550;19.254;2024-01-30T09:09:13;37.55;;;27.02;;
74620;SDS011;75998;47.550;19.254;2024-01-30T09:11:39;35.60;;;28.60;;
74620;SDS011;75998;47.550;19.254;2024-01-30T09:14:05;31.98;;;25.20;;
74620;SDS011;75998;47.550;19.254;2024-01-30T09:16:33;35.97;;;28.13;;
74620;SDS011;75998;47.550;19.254;2024-01-30T09:18:59;36.90;;;28.02;;
74620;SDS011;75998;47.550;19.254;2024-01-30T09:21:24;36.42;;;27.85;;
74620;SDS011;75998;47.550;19.254;2024-01-30T09:24:00;34.38;;;27.55;;
74620;SDS011;75998;47.550;19.254;2024-01-30T09:26:28;33.38;;;27.38;;
74620;SDS011;75998;47.550;19.254;2024-01-30T09:28:53;37.58;;;28.60;;
74620;SDS011;75998;47.550;19.254;2024-01-30T09:31:18;34.13;;;27.83;;
74620;SDS011;75998;47.550;19.254;2024-01-30T09:33:44;39.63;;;31.53;;
74620;SDS011;75998;47.550;19.254;2024-01-30T09:36:12;35.88;;;29.27;;
74620;SDS011;75998;47.550;19.254;2024-01-30T09:38:40;32.67;;;27.17;;
74620;SDS011;75998;47.550;19.254;2024-01-30T09:41:06;36.03;;;27.20;;
74620;SDS011;75998;47.550;19.254;2024-01-30T09:43:34;38.08;;;29.77;;
74620;SDS011;75998;47.550;19.254;2024-01-30T09:46:01;35.17;;;27.93;;
74620;SDS011;75998;47.550;19.254;2024-01-30T09:48:28;33.88;;;26.73;;
74620;SDS011;75998;47.550;19.254;2024-01-30T09:50:56;37.53;;;27.58;;
74620;SDS011;75998;47.550;19.254;2024-01-30T09:53:22;35.38;;;27.88;;
74620;SDS011;75998;47.550;19.254;2024-01-30T09:55:48;35.60;;;27.92;;
74620;SDS011;75998;47.550;19.254;2024-01-30T09:58:15;35.53;;;28.15;;
74620;SDS011;75998;47.550;19.254;2024-01-30T10:00:44;34.97;;;27.40;;
74620;SDS011;75998;47.550;19.254;2024-01-30T10:03:10;35.07;;;28.13;;
74620;SDS011;75998;47.550;19.254;2024-01-30T10:05:35;40.70;;;31.93;;
74620;SDS011;75998;47.550;19.254;2024-01-30T10:08:05;38.03;;;29.77;;
74620;SDS011;75998;47.550;19.254;2024-01-30T10:10:33;37.83;;;28.70;;
74620;SDS011;75998;47.550;19.254;2024-01-30T10:12:59;36.90;;;29.07;;
74620;SDS011;75998;47.550;19.254;2024-01-30T10:15:25;35.13;;;28.08;;
74620;SDS011;75998;47.550;19.254;2024-01-30T10:17:50;36.42;;;28.65;;
74620;SDS011;75998;47.550;19.254;2024-01-30T10:20:16;31.40;;;24.73;;
74620;SDS011;75998;47.550;19.254;2024-01-30T10:22:43;32.73;;;25.90;;
74620;SDS011;75998;47.550;19.254;2024-01-30T10:25:10;34.00;;;26.25;;
74620;SDS011;75998;47.550;19.254;2024-01-30T10:27:39;31.27;;;24.60;;
74620;SDS011;75998;47.550;19.254;2024-01-30T10:30:05;30.23;;;23.70;;
74620;SDS011;75998;47.550;19.254;2024-01-30T10:32:31;31.75;;;23.80;;
74620;SDS011;75998;47.550;19.254;2024-01-30T10:34:56;25.88;;;19.35;;
74620;SDS011;75998;47.550;19.254;2024-01-30T10:37:22;23.23;;;17.43;;
74620;SDS011;75998;47.550;19.254;2024-01-30T10:39:50;26.33;;;17.60;;
74620;SDS011;75998;47.550;19.254;2024-01-30T10:42:18;24.00;;;18.27;;
74620;SDS011;75998;47.550;19.254;2024-01-30T10:44:56;23.60;;;17.80;;
74620;SDS011;75998;47.550;19.254;2024-01-30T10:49:56;25.40;;;16.60;;
74620;SDS011;75998;47.550;19.254;2024-01-30T10:52:24;26.70;;;18.27;;
74620;SDS011;75998;47.550;19.254;2024-01-30T10:54:51;22.40;;;15.95;;
74620;SDS011;75998;47.550;19.254;2024-01-30T10:57:17;25.47;;;18.70;;
74620;SDS011;75998;47.550;19.254;2024-01-30T10:59:43;24.27;;;17.13;;
74620;SDS011;75998;47.550;19.254;2024-01-30T11:02:10;23.15;;;17.60;;
74620;SDS011;75998;47.550;19.254;2024-01-30T11:04:42;31.40;;;21.92;;
74620;SDS011;75998;47.550;19.254;2024-01-30T11:09:52;31.55;;;20.77;;
74620;SDS011;75998;47.550;19.254;2024-01-30T11:12:22;25.50;;;20.00;;
74620;SDS011;75998;47.550;19.254;2024-01-30T11:17:51;31.60;;;21.85;;
74620;SDS011;75998;47.550;19.254;2024-01-30T11:20:19;26.37;;;20.60;;
74620;SDS011;75998;47.550;19.254;2024-01-30T11:25:22;30.73;;;20.25;;
74620;SDS011;75998;47.550;19.254;2024-01-30T11:27:50;24.55;;;21.10;;
74620;SDS011;75998;47.550;19.254;2024-01-30T11:30:23;25.48;;;20.65;;
74620;SDS011;75998;47.550;19.254;2024-01-30T11:35:25;23.58;;;18.08;;
74620;SDS011;75998;47.550;19.254;2024-01-30T11:37:51;30.05;;;21.88;;
74620;SDS011;75998;47.550;19.254;2024-01-30T11:40:18;27.42;;;19.50;;
74620;SDS011;75998;47.550;19.254;2024-01-30T11:42:44;27.42;;;21.58;;
74620;SDS011;75998;47.550;19.254;2024-01-30T11:54:57;25.30;;;19.30;;
74620;SDS011;75998;47.550;19.254;2024-01-30T11:57:22;27.37;;;20.37;;
74620;SDS011;75998;47.550;19.254;2024-01-30T11:59:47;25.80;;;20.30;;
74620;SDS011;75998;47.550;19.254;2024-01-30T12:02:16;30.40;;;20.52;;
74620;SDS011;75998;47.550;19.254;2024-01-30T12:07:07;26.30;;;19.83;;
74620;SDS011;75998;47.550;19.254;2024-01-30T12:09:33;27.83;;;21.87;;
74620;SDS011;75998;47.550;19.254;2024-01-30T12:11:58;29.45;;;21.75;;
74620;SDS011;75998;47.550;19.254;2024-01-30T12:14:24;29.75;;;23.20;;
74620;SDS011;75998;47.550;19.254;2024-01-30T12:16:51;27.77;;;21.95;;
74620;SDS011;75998;47.550;19.254;2024-01-30T12:19:26;31.63;;;21.98;;
74620;SDS011;75998;47.550;19.254;2024-01-30T12:21:55;26.73;;;20.33;;
74620;SDS011;75998;47.550;19.254;2024-01-30T12:24:24;28.33;;;19.80;;
74620;SDS011;75998;47.550;19.254;2024-01-30T12:26:50;29.02;;;20.20;;
74620;SDS011;75998;47.550;19.254;2024-01-30T12:29:17;25.08;;;18.80;;
74620;SDS011;75998;47.550;19.254;2024-01-30T12:31:42;24.55;;;17.92;;
74620;SDS011;75998;47.550;19.254;2024-01-30T12:34:09;30.02;;;22.92;;
74620;SDS011;75998;47.550;19.254;2024-01-30T12:36:34;29.52;;;21.25;;
74620;SDS011;75998;47.550;19.254;2024-01-30T12:39:00;27.45;;;20.08;;
74620;SDS011;75998;47.550;19.254;2024-01-30T12:41:26;23.35;;;17.60;;
74620;SDS011;75998;47.550;19.254;2024-01-30T12:43:54;23.92;;;18.25;;
74620;SDS011;75998;47.550;19.254;2024-01-30T12:46:27;22.33;;;17.83;;
74620;SDS011;75998;47.550;19.254;2024-01-30T12:48:54;24.98;;;17.98;;
74620;SDS011;75998;47.550;19.254;2024-01-30T12:51:19;25.90;;;18.50;;
74620;SDS011;75998;47.550;19.254;2024-01-30T12:53:45;23.13;;;17.37;;
74620;SDS011;75998;47.550;19.254;2024-01-30T12:56:12;23.38;;;17.23;;
74620;SDS011;75998;47.550;19.254;2024-01-30T12:58:38;22.20;;;15.90;;
74620;SDS011;75998;47.550;19.254;2024-01-30T13:01:03;21.87;;;16.40;;
74620;SDS011;75998;47.550;19.254;2024-01-30T13:03:29;23.30;;;18.13;;
74620;SDS011;75998;47.550;19.254;2024-01-30T13:05:54;22.45;;;16.00;;
74620;SDS011;75998;47.550;19.254;2024-01-30T13:08:20;24.60;;;17.33;;
74620;SDS011;75998;47.550;19.254;2024-01-30T13:10:46;30.55;;;17.75;;
74620;SDS011;75998;47.550;19.254;2024-01-30T13:13:11;28.60;;;18.48;;
74620;SDS011;75998;47.550;19.254;2024-01-30T13:18:03;23.90;;;16.67;;
74620;SDS011;75998;47.550;19.254;2024-01-30T13:20:30;20.25;;;15.05;;
74620;SDS011;75998;47.550;19.254;2024-01-30T13:22:55;19.55;;;13.93;;
74620;SDS011;75998;47.550;19.254;2024-01-30T13:27:46;21.20;;;13.02;;
74620;SDS011;75998;47.550;19.254;2024-01-30T13:30:11;24.97;;;13.43;;
74620;SDS011;75998;47.550;19.254;2024-01-30T13:32:37;20.50;;;15.05;;
74620;SDS011;75998;47.550;19.254;2024-01-30T13:35:03;20.75;;;14.82;;
74620;SDS011;75998;47.550;19.254;2024-01-30T13:37:29;25.13;;;14.75;;
74620;SDS011;75998;47.550;19.254;2024-01-30T13:39:55;19.23;;;14.68;;
74620;SDS011;75998;47.550;19.254;2024-01-30T13:42:21;21.33;;;14.90;;
74620;SDS011;75998;47.550;19.254;2024-01-30T13:44:46;21.58;;;14.35;;
74620;SDS011;75998;47.550;19.254;2024-01-30T13:47:12;21.40;;;13.77;;
74620;SDS011;75998;47.550;19.254;2024-01-30T13:49:41;24.23;;;13.93;;
74620;SDS011;75998;47.550;19.254;2024-01-30T13:52:06;25.17;;;13.75;;
74620;SDS011;75998;47.550;19.254;2024-01-30T13:54:32;33.83;;;17.80;;
74620;SDS011;75998;47.550;19.254;2024-01-30T13:56:57;27.60;;;18.27;;
74620;SDS011;75998;47.550;19.254;2024-01-30T13:59:23;22.05;;;16.05;;
74620;SDS011;75998;47.550;19.254;2024-01-30T14:01:50;22.83;;;16.70;;
74620;SDS011;75998;47.550;19.254;2024-01-30T14:04:16;25.63;;;19.35;;
74620;SDS011;75998;47.550;19.254;2024-01-30T14:06:41;30.48;;;18.42;;
74620;SDS011;75998;47.550;19.254;2024-01-30T14:09:07;25.95;;;16.73;;
74620;SDS011;75998;47.550;19.254;2024-01-30T14:11:33;26.25;;;17.35;;
74620;SDS011;75998;47.550;19.254;2024-01-30T14:13:58;23.00;;;15.80;;
74620;SDS011;75998;47.550;19.254;2024-01-30T14:16:24;21.92;;;15.38;;
74620;SDS011;75998;47.550;19.254;2024-01-30T14:18:49;22.38;;;15.57;;
74620;SDS011;75998;47.550;19.254;2024-01-30T14:21:15;21.52;;;15.13;;
74620;SDS011;75998;47.550;19.254;2024-01-30T14:23:41;23.97;;;14.70;;
74620;SDS011;75998;47.550;19.254;2024-01-30T14:26:06;25.48;;;14.85;;
74620;SDS011;75998;47.550;19.254;2024-01-30T14:28:32;22.98;;;13.32;;
74620;SDS011;75998;47.550;19.254;2024-01-30T14:30:57;24.10;;;14.43;;
74620;SDS011;75998;47.550;19.254;2024-01-30T14:35:48;17.63;;;12.55;;
74620;SDS011;75998;47.550;19.254;2024-01-30T14:38:14;16.25;;;12.10;;
74620;SDS011;75998;47.550;19.254;2024-01-30T14:40:39;23.00;;;14.63;;